sensor_id;sensor_type;location;lat;lon;timestamp;pressure;altitude;pressure_sealevel;temperature;humidity
32109;BME280;18624;50.042;8.436;2023-04-10T00:00:19;101107.09;;;7.41;75.80
32109;BME280;18624;50.042;8.436;2023-04-10T00:02:45;101170.22;;;7.79;75.90
32109;BME280;18624;50.042;8.436;2023-04-10T00:05:12;101165.94;;;7.78;75.15
32109;BME280;18624;50.042;8.436;2023-04-10T00:07:39;101173.34;;;7.74;75.58
32109;BME280;18624;50.042;8.436;2023-04-10T00:10:06;101180.00;;;7.66;76.09
32109;BME280;18624;50.042;8.436;2023-04-10T00:12:35;101109.41;;;7.21;77.04
32109;BME280;18624;50.042;8.436;2023-04-10T00:15:02;101163.59;;;7.55;77.06
32109;BME280;18624;50.042;8.436;2023-04-10T00:17:29;101144.50;;;7.41;77.00
32109;BME280;18624;50.042;8.436;2023-04-10T00:19:56;101168.28;;;7.54;77.54
32109;BME280;18624;50.042;8.436;2023-04-10T00:22:24;101167.09;;;7.52;77.26
32109;BME280;18624;50.042;8.436;2023-04-10T00:24:51;101167.13;;;7.48;77.62
32109;BME280;18624;50.042;8.436;2023-04-10T00:27:17;101171.78;;;7.41;78.02
32109;BME280;18624;50.042;8.436;2023-04-10T00:29:43;101167.47;;;7.36;78.82
32109;BME280;18624;50.042;8.436;2023-04-10T00:32:10;101160.06;;;7.33;78.96
32109;BME280;18624;50.042;8.436;2023-04-10T00:34:36;101165.50;;;7.29;80.00
32109;BME280;18624;50.042;8.436;2023-04-10T00:37:03;101170.94;;;7.29;80.46
32109;BME280;18624;50.042;8.436;2023-04-10T00:39:29;101169.41;;;7.32;79.10
32109;BME280;18624;50.042;8.436;2023-04-10T00:41:56;101163.97;;;7.32;78.63
32109;BME280;18624;50.042;8.436;2023-04-10T00:44:22;101165.50;;;7.26;79.23
32109;BME280;18624;50.042;8.436;2023-04-10T00:46:49;101152.63;;;7.16;79.88
32109;BME280;18624;50.042;8.436;2023-04-10T00:49:15;101161.22;;;7.21;80.29
32109;BME280;18624;50.042;8.436;2023-04-10T00:51:43;101165.50;;;7.22;80.87
32109;BME280;18624;50.042;8.436;2023-04-10T00:54:10;101120.66;;;6.95;81.19
32109;BME280;18624;50.042;8.436;2023-04-10T00:56:37;101172.13;;;7.25;81.77
32109;BME280;18624;50.042;8.436;2023-04-10T00:59:04;101171.34;;;7.28;80.58
32109;BME280;18624;50.042;8.436;2023-04-10T01:01:32;101169.03;;;7.30;78.29
32109;BME280;18624;50.042;8.436;2023-04-10T01:03:59;101170.19;;;7.32;78.32
32109;BME280;18624;50.042;8.436;2023-04-10T01:06:43;101181.88;;;7.33;78.34
32109;BME280;18624;50.042;8.436;2023-04-10T01:15:03;101176.03;;;7.38;79.08
32109;BME280;18624;50.042;8.436;2023-04-10T01:20:13;101179.56;;;7.42;79.39
32109;BME280;18624;50.042;8.436;2023-04-10T01:25:45;101177.97;;;7.38;79.18
32109;BME280;18624;50.042;8.436;2023-04-10T01:28:28;101176.81;;;7.42;78.34
32109;BME280;18624;50.042;8.436;2023-04-10T01:31:00;101169.44;;;7.39;78.32
32109;BME280;18624;50.042;8.436;2023-04-10T01:33:36;101161.25;;;7.35;77.79
32109;BME280;18624;50.042;8.436;2023-04-10T01:36:05;101173.72;;;7.36;76.92
32109;BME280;18624;50.042;8.436;2023-04-10T01:38:34;101162.41;;;7.38;77.23
32109;BME280;18624;50.042;8.436;2023-04-10T01:41:01;101163.59;;;7.41;77.40
32109;BME280;18624;50.042;8.436;2023-04-10T01:43:30;101075.47;;;6.87;77.63
32109;BME280;18624;50.042;8.436;2023-04-10T01:45:59;101155.81;;;7.39;77.97
32109;BME280;18624;50.042;8.436;2023-04-10T01:48:27;101154.22;;;7.38;78.02
32109;BME280;18624;50.042;8.436;2023-04-10T01:50:55;101149.94;;;7.30;78.39
32109;BME280;18624;50.042;8.436;2023-04-10T01:53:22;101144.09;;;7.28;78.96
32109;BME280;18624;50.042;8.436;2023-04-10T01:55:50;101101.53;;;6.84;79.22
32109;BME280;18624;50.042;8.436;2023-04-10T01:58:18;101144.84;;;7.25;79.88
32109;BME280;18624;50.042;8.436;2023-04-10T02:00:45;101141.34;;;7.21;78.78
32109;BME280;18624;50.042;8.436;2023-04-10T02:03:13;101139.78;;;7.23;77.81
32109;BME280;18624;50.042;8.436;2023-04-10T02:06:17;101131.22;;;7.25;77.59
32109;BME280;18624;50.042;8.436;2023-04-10T02:08:53;101128.47;;;7.25;77.26
32109;BME280;18624;50.042;8.436;2023-04-10T02:11:30;101113.28;;;7.20;76.47
32109;BME280;18624;50.042;8.436;2023-04-10T02:14:00;101123.03;;;7.28;76.18
32109;BME280;18624;50.042;8.436;2023-04-10T02:16:30;101120.31;;;7.25;76.82
32109;BME280;18624;50.042;8.436;2023-04-10T02:19:00;101117.22;;;7.26;77.36
32109;BME280;18624;50.042;8.436;2023-04-10T02:21:27;101126.56;;;7.25;77.10
32109;BME280;18624;50.042;8.436;2023-04-10T02:23:57;101124.97;;;7.14;78.81
32109;BME280;18624;50.042;8.436;2023-04-10T02:26:24;101121.84;;;7.04;79.38
32109;BME280;18624;50.042;8.436;2023-04-10T02:28:50;101131.56;;;7.02;80.33
32109;BME280;18624;50.042;8.436;2023-04-10T02:31:17;101125.72;;;7.00;80.11
32109;BME280;18624;50.042;8.436;2023-04-10T02:33:43;101129.22;;;7.00;79.84
32109;BME280;18624;50.042;8.436;2023-04-10T02:36:10;101132.75;;;7.04;79.01
32109;BME280;18624;50.042;8.436;2023-04-10T02:38:36;101126.53;;;7.07;78.99
32109;BME280;18624;50.042;8.436;2023-04-10T02:41:03;101131.19;;;7.10;77.66
32109;BME280;18624;50.042;8.436;2023-04-10T02:43:30;101135.88;;;7.14;77.35
32109;BME280;18624;50.042;8.436;2023-04-10T02:45:56;101131.59;;;7.13;76.17
32109;BME280;18624;50.042;8.436;2023-04-10T02:48:25;101133.16;;;7.17;76.57
32109;BME280;18624;50.042;8.436;2023-04-10T02:50:57;101100.38;;;6.89;76.44
32109;BME280;18624;50.042;8.436;2023-04-10T02:53:24;101132.75;;;7.15;76.42
32109;BME280;18624;50.042;8.436;2023-04-10T02:55:55;101136.63;;;7.10;77.10
32109;BME280;18624;50.042;8.436;2023-04-10T02:58:21;101126.13;;;7.05;77.04
32109;BME280;18624;50.042;8.436;2023-04-10T03:00:50;101082.03;;;6.71;77.51
32109;BME280;18624;50.042;8.436;2023-04-10T03:03:36;101122.97;;;6.93;77.63
32109;BME280;18624;50.042;8.436;2023-04-10T03:06:02;101121.03;;;6.90;78.58
32109;BME280;18624;50.042;8.436;2023-04-10T03:08:32;101116.34;;;6.90;78.77
32109;BME280;18624;50.042;8.436;2023-04-10T03:10:59;101106.19;;;6.83;79.56
32109;BME280;18624;50.042;8.436;2023-04-10T03:13:25;101102.69;;;6.83;79.59
32109;BME280;18624;50.042;8.436;2023-04-10T03:15:52;101100.34;;;6.78;80.18
32109;BME280;18624;50.042;8.436;2023-04-10T03:18:18;101098.78;;;6.73;80.31
32109;BME280;18624;50.042;8.436;2023-04-10T03:20:48;101100.34;;;6.74;80.56
32109;BME280;18624;50.042;8.436;2023-04-10T03:23:18;101099.97;;;6.83;79.74
32109;BME280;18624;50.042;8.436;2023-04-10T03:25:48;101030.56;;;6.41;79.04
32109;BME280;18624;50.042;8.436;2023-04-10T03:28:15;101095.66;;;6.75;79.87
32109;BME280;18624;50.042;8.436;2023-04-10T03:30:42;101027.81;;;6.34;79.91
32109;BME280;18624;50.042;8.436;2023-04-10T03:33:08;101045.34;;;6.44;80.15
32109;BME280;18624;50.042;8.436;2023-04-10T03:35:35;101094.13;;;6.77;80.66
32109;BME280;18624;50.042;8.436;2023-04-10T03:38:02;101094.50;;;6.79;80.07
32109;BME280;18624;50.042;8.436;2023-04-10T03:40:28;101094.50;;;6.76;80.40
32109;BME280;18624;50.042;8.436;2023-04-10T03:42:54;101091.00;;;6.79;80.85
32109;BME280;18624;50.042;8.436;2023-04-10T03:45:21;101090.97;;;6.75;80.86
32109;BME280;18624;50.042;8.436;2023-04-10T03:47:48;101086.31;;;6.72;80.62
32109;BME280;18624;50.042;8.436;2023-04-10T03:50:14;101083.91;;;6.56;80.85
32109;BME280;18624;50.042;8.436;2023-04-10T03:52:50;101076.91;;;6.52;81.85
32109;BME280;18624;50.042;8.436;2023-04-10T03:55:19;101080.03;;;6.54;81.26
32109;BME280;18624;50.042;8.436;2023-04-10T03:57:48;101081.91;;;6.43;83.38
32109;BME280;18624;50.042;8.436;2023-04-10T04:00:16;101086.63;;;6.46;82.63
32109;BME280;18624;50.042;8.436;2023-04-10T04:02:47;101078.44;;;6.46;83.34
32109;BME280;18624;50.042;8.436;2023-04-10T04:05:36;101077.28;;;6.47;82.61
32109;BME280;18624;50.042;8.436;2023-04-10T04:08:21;101078.47;;;6.53;82.04
32109;BME280;18624;50.042;8.436;2023-04-10T04:11:01;101091.31;;;6.56;81.99
32109;BME280;18624;50.042;8.436;2023-04-10T04:13:46;101089.78;;;6.66;82.31
32109;BME280;18624;50.042;8.436;2023-04-10T04:16:27;101096.44;;;6.68;82.15
32109;BME280;18624;50.042;8.436;2023-04-10T04:19:10;101096.00;;;6.66;82.04
32109;BME280;18624;50.042;8.436;2023-04-10T04:21:43;101087.44;;;6.53;82.90
32109;BME280;18624;50.042;8.436;2023-04-10T04:24:19;101088.97;;;6.54;83.01
32109;BME280;18624;50.042;8.436;2023-04-10T04:27:09;101091.72;;;6.62;82.63
32109;BME280;18624;50.042;8.436;2023-04-10T04:30:04;101085.84;;;6.45;82.77
32109;BME280;18624;50.042;8.436;2023-04-10T04:32:42;101092.09;;;6.56;82.41
32109;BME280;18624;50.042;8.436;2023-04-10T04:35:21;101088.94;;;6.47;82.79
32109;BME280;18624;50.042;8.436;2023-04-10T04:38:14;101095.63;;;6.60;83.01
32109;BME280;18624;50.042;8.436;2023-04-10T04:41:02;101095.22;;;6.58;82.77
32109;BME280;18624;50.042;8.436;2023-04-10T04:43:47;100979.69;;;5.76;83.56
32109;BME280;18624;50.042;8.436;2023-04-10T04:46:25;101103.75;;;6.57;82.60
32109;BME280;18624;50.042;8.436;2023-04-10T04:49:10;101100.28;;;6.53;82.78
32109;BME280;18624;50.042;8.436;2023-04-10T04:52:09;101028.53;;;6.13;83.05
32109;BME280;18624;50.042;8.436;2023-04-10T04:54:40;101096.34;;;6.47;83.86
32109;BME280;18624;50.042;8.436;2023-04-10T04:57:32;101097.88;;;6.48;83.95
32109;BME280;18624;50.042;8.436;2023-04-10T05:00:06;101093.59;;;6.43;84.61
32109;BME280;18624;50.042;8.436;2023-04-10T05:02:44;101091.66;;;6.44;84.56
32109;BME280;18624;50.042;8.436;2023-04-10T05:05:40;101090.47;;;6.41;85.12
32109;BME280;18624;50.042;8.436;2023-04-10T05:08:23;101090.50;;;6.48;85.40
32109;BME280;18624;50.042;8.436;2023-04-10T05:11:04;101094.03;;;6.56;84.44
32109;BME280;18624;50.042;8.436;2023-04-10T05:13:37;101096.75;;;6.52;84.79
32109;BME280;18624;50.042;8.436;2023-04-10T05:16:33;101099.09;;;6.50;84.99
32109;BME280;18624;50.042;8.436;2023-04-10T05:19:14;101097.53;;;6.49;84.63
32109;BME280;18624;50.042;8.436;2023-04-10T05:21:50;101100.25;;;6.49;85.58
32109;BME280;18624;50.042;8.436;2023-04-10T05:24:22;101098.31;;;6.53;84.61
32109;BME280;18624;50.042;8.436;2023-04-10T05:27:07;101095.22;;;6.58;84.54
32109;BME280;18624;50.042;8.436;2023-04-10T05:30:03;101106.91;;;6.59;83.71
32109;BME280;18624;50.042;8.436;2023-04-10T05:32:36;101109.25;;;6.64;84.06
32109;BME280;18624;50.042;8.436;2023-04-10T05:35:29;101113.16;;;6.63;83.16
32109;BME280;18624;50.042;8.436;2023-04-10T05:38:04;101103.41;;;6.62;83.21
32109;BME280;18624;50.042;8.436;2023-04-10T05:40:44;101112.00;;;6.68;83.28
32109;BME280;18624;50.042;8.436;2023-04-10T05:43:34;101071.00;;;6.32;83.68
32109;BME280;18624;50.042;8.436;2023-04-10T05:46:09;101061.22;;;6.24;84.80
32109;BME280;18624;50.042;8.436;2023-04-10T05:48:58;101046.00;;;6.12;84.94
32109;BME280;18624;50.042;8.436;2023-04-10T05:51:49;101105.34;;;6.58;84.48
32109;BME280;18624;50.042;8.436;2023-04-10T05:54:52;101124.03;;;6.59;84.48
32109;BME280;18624;50.042;8.436;2023-04-10T05:57:48;101113.94;;;6.74;84.54
32109;BME280;18624;50.042;8.436;2023-04-10T06:00:35;101119.41;;;6.78;83.94
32109;BME280;18624;50.042;8.436;2023-04-10T06:03:28;101112.41;;;6.77;83.94
32109;BME280;18624;50.042;8.436;2023-04-10T06:06:00;101112.41;;;6.77;84.73
32109;BME280;18624;50.042;8.436;2023-04-10T06:08:28;101119.03;;;6.83;84.32
32109;BME280;18624;50.042;8.436;2023-04-10T06:10:55;101116.72;;;6.85;84.45
32109;BME280;18624;50.042;8.436;2023-04-10T06:13:21;101108.94;;;6.80;84.49
32109;BME280;18624;50.042;8.436;2023-04-10T06:15:50;101110.88;;;6.87;85.06
32109;BME280;18624;50.042;8.436;2023-04-10T06:18:17;101110.50;;;6.92;84.99
32109;BME280;18624;50.042;8.436;2023-04-10T06:20:43;101110.91;;;6.97;84.20
32109;BME280;18624;50.042;8.436;2023-04-10T06:23:10;101103.13;;;7.06;84.24
32109;BME280;18624;50.042;8.436;2023-04-10T06:25:38;101101.97;;;7.04;84.02
32109;BME280;18624;50.042;8.436;2023-04-10T06:28:05;101104.69;;;7.04;84.35
32109;BME280;18624;50.042;8.436;2023-04-10T06:30:32;101105.88;;;7.03;84.28
32109;BME280;18624;50.042;8.436;2023-04-10T06:33:00;101102.38;;;7.13;84.21
32109;BME280;18624;50.042;8.436;2023-04-10T06:35:26;101109.38;;;7.14;84.02
32109;BME280;18624;50.042;8.436;2023-04-10T06:37:53;101108.22;;;7.15;82.55
32109;BME280;18624;50.042;8.436;2023-04-10T06:40:20;101113.69;;;7.08;83.77
32109;BME280;18624;50.042;8.436;2023-04-10T06:42:46;101109.78;;;7.20;83.99
32109;BME280;18624;50.042;8.436;2023-04-10T06:45:21;101099.66;;;7.24;84.00
32109;BME280;18624;50.042;8.436;2023-04-10T06:47:47;101102.00;;;7.29;83.66
32109;BME280;18624;50.042;8.436;2023-04-10T06:50:14;101108.22;;;7.29;83.59
32109;BME280;18624;50.042;8.436;2023-04-10T06:52:40;101106.28;;;7.33;84.57
32109;BME280;18624;50.042;8.436;2023-04-10T06:55:07;101111.00;;;7.44;84.29
32109;BME280;18624;50.042;8.436;2023-04-10T06:57:33;101098.53;;;7.50;82.82
32109;BME280;18624;50.042;8.436;2023-04-10T07:00:00;101096.19;;;7.66;82.79
32109;BME280;18624;50.042;8.436;2023-04-10T07:02:27;101101.63;;;7.73;80.96
32109;BME280;18624;50.042;8.436;2023-04-10T07:04:53;101096.19;;;7.84;81.09
32109;BME280;18624;50.042;8.436;2023-04-10T07:07:22;101061.88;;;7.76;79.87
32109;BME280;18624;50.042;8.436;2023-04-10T07:09:49;101100.03;;;8.08;79.21
32109;BME280;18624;50.042;8.436;2023-04-10T07:12:15;101089.88;;;8.16;79.67
32109;BME280;18624;50.042;8.436;2023-04-10T07:14:42;101092.19;;;8.24;78.84
32109;BME280;18624;50.042;8.436;2023-04-10T07:17:08;101087.44;;;8.35;78.56
32109;BME280;18624;50.042;8.436;2023-04-10T07:19:35;101002.94;;;7.96;77.47
32109;BME280;18624;50.042;8.436;2023-04-10T07:22:02;101088.97;;;8.58;76.36
32109;BME280;18624;50.042;8.436;2023-04-10T07:24:30;101082.72;;;8.61;75.50
32109;BME280;18624;50.042;8.436;2023-04-10T07:26:57;101088.50;;;8.74;75.77
32109;BME280;18624;50.042;8.436;2023-04-10T07:29:23;101075.97;;;8.76;75.22
32109;BME280;18624;50.042;8.436;2023-04-10T07:31:49;101078.63;;;8.91;76.06
32109;BME280;18624;50.042;8.436;2023-04-10T07:34:16;101076.22;;;9.03;74.01
32109;BME280;18624;50.042;8.436;2023-04-10T07:36:43;101076.53;;;9.16;75.22
32109;BME280;18624;50.042;8.436;2023-04-10T07:39:11;101081.88;;;9.30;73.35
32109;BME280;18624;50.042;8.436;2023-04-10T07:41:38;101088.06;;;9.42;73.72
32109;BME280;18624;50.042;8.436;2023-04-10T07:44:04;101084.00;;;9.60;72.85
32109;BME280;18624;50.042;8.436;2023-04-10T07:46:31;101082.69;;;9.72;71.12
32109;BME280;18624;50.042;8.436;2023-04-10T07:48:57;101079.09;;;9.82;71.39
32109;BME280;18624;50.042;8.436;2023-04-10T07:51:24;101095.00;;;9.95;70.51
32109;BME280;18624;50.042;8.436;2023-04-10T07:53:51;101070.25;;;10.05;67.49
32109;BME280;18624;50.042;8.436;2023-04-10T07:56:18;101065.44;;;10.17;69.68
32109;BME280;18624;50.042;8.436;2023-04-10T07:58:46;101080.56;;;10.32;66.43
32109;BME280;18624;50.042;8.436;2023-04-10T08:01:13;101013.13;;;10.04;67.25
32109;BME280;18624;50.042;8.436;2023-04-10T08:03:41;101073.38;;;10.45;66.74
32109;BME280;18624;50.042;8.436;2023-04-10T08:06:09;101063.34;;;10.62;66.23
32109;BME280;18624;50.042;8.436;2023-04-10T08:08:36;101056.53;;;10.74;64.47
32109;BME280;18624;50.042;8.436;2023-04-10T08:11:22;101046.81;;;10.69;64.77
32109;BME280;18624;50.042;8.436;2023-04-10T08:13:54;101054.47;;;10.81;64.16
32109;BME280;18624;50.042;8.436;2023-04-10T08:16:25;101041.06;;;10.87;63.58
32109;BME280;18624;50.042;8.436;2023-04-10T08:18:54;101044.38;;;11.02;62.92
32109;BME280;18624;50.042;8.436;2023-04-10T08:21:25;101042.84;;;11.24;62.52
32109;BME280;18624;50.042;8.436;2023-04-10T08:23:54;101039.81;;;11.42;63.02
32109;BME280;18624;50.042;8.436;2023-04-10T08:26:21;101038.66;;;11.63;60.90
32109;BME280;18624;50.042;8.436;2023-04-10T08:28:49;101037.56;;;11.80;60.99
32109;BME280;18624;50.042;8.436;2023-04-10T08:31:17;101028.81;;;11.89;58.76
32109;BME280;18624;50.042;8.436;2023-04-10T08:33:43;101023.03;;;12.03;60.75
32109;BME280;18624;50.042;8.436;2023-04-10T08:36:10;101028.25;;;12.18;58.51
32109;BME280;18624;50.042;8.436;2023-04-10T08:38:38;101019.84;;;12.25;58.79
32109;BME280;18624;50.042;8.436;2023-04-10T08:41:05;101025.00;;;12.23;57.38
32109;BME280;18624;50.042;8.436;2023-04-10T08:43:31;101017.78;;;12.29;56.84
32109;BME280;18624;50.042;8.436;2023-04-10T08:46:00;101021.38;;;12.46;58.50
32109;BME280;18624;50.042;8.436;2023-04-10T08:48:37;101011.88;;;12.66;57.61
32109;BME280;18624;50.042;8.436;2023-04-10T08:51:06;101019.47;;;12.95;59.19
32109;BME280;18624;50.042;8.436;2023-04-10T08:53:47;101014.53;;;13.23;56.52
32109;BME280;18624;50.042;8.436;2023-04-10T08:56:17;101002.72;;;13.38;54.48
32109;BME280;18624;50.042;8.436;2023-04-10T08:58:44;101000.28;;;13.57;54.09
32109;BME280;18624;50.042;8.436;2023-04-10T09:01:11;100991.94;;;13.60;51.58
32109;BME280;18624;50.042;8.436;2023-04-10T09:03:37;100996.47;;;13.67;52.52
32109;BME280;18624;50.042;8.436;2023-04-10T09:06:05;100985.81;;;13.69;52.07
32109;BME280;18624;50.042;8.436;2023-04-10T09:08:32;100970.09;;;13.53;51.32
32109;BME280;18624;50.042;8.436;2023-04-10T09:10:59;100969.63;;;13.55;51.18
32109;BME280;18624;50.042;8.436;2023-04-10T09:13:40;100970.75;;;13.57;51.17
32109;BME280;18624;50.042;8.436;2023-04-10T09:16:08;100965.41;;;13.66;53.52
32109;BME280;18624;50.042;8.436;2023-04-10T09:18:44;100960.03;;;13.76;52.20
32109;BME280;18624;50.042;8.436;2023-04-10T09:21:13;100965.09;;;13.77;52.27
32109;BME280;18624;50.042;8.436;2023-04-10T09:23:42;100964.56;;;13.82;52.22
32109;BME280;18624;50.042;8.436;2023-04-10T09:26:27;100953.34;;;13.89;53.15
32109;BME280;18624;50.042;8.436;2023-04-10T09:28:58;100946.63;;;14.03;52.50
32109;BME280;18624;50.042;8.436;2023-04-10T09:31:46;100950.94;;;14.04;50.72
32109;BME280;18624;50.042;8.436;2023-04-10T09:34:17;100947.19;;;13.98;51.39
32109;BME280;18624;50.042;8.436;2023-04-10T09:36:52;100942.75;;;13.88;51.01
32109;BME280;18624;50.042;8.436;2023-04-10T09:39:19;100938.78;;;13.89;54.36
32109;BME280;18624;50.042;8.436;2023-04-10T09:41:51;100921.59;;;13.85;54.30
32109;BME280;18624;50.042;8.436;2023-04-10T09:44:27;100937.16;;;14.04;53.82
32109;BME280;18624;50.042;8.436;2023-04-10T09:46:55;100845.28;;;13.56;51.16
32109;BME280;18624;50.042;8.436;2023-04-10T09:49:22;100930.31;;;14.09;51.68
32109;BME280;18624;50.042;8.436;2023-04-10T09:51:48;100912.91;;;13.99;52.21
32109;BME280;18624;50.042;8.436;2023-04-10T09:54:15;100921.06;;;14.03;51.68
32109;BME280;18624;50.042;8.436;2023-04-10T09:56:44;100895.81;;;13.91;51.53
32109;BME280;18624;50.042;8.436;2023-04-10T09:59:12;100906.84;;;14.04;52.76
32109;BME280;18624;50.042;8.436;2023-04-10T10:01:39;100871.22;;;13.84;52.07
32109;BME280;18624;50.042;8.436;2023-04-10T10:04:08;100904.88;;;14.17;51.39
32109;BME280;18624;50.042;8.436;2023-04-10T10:06:37;100896.50;;;14.21;49.86
32109;BME280;18624;50.042;8.436;2023-04-10T10:09:04;100889.44;;;14.33;51.56
32109;BME280;18624;50.042;8.436;2023-04-10T10:11:34;100880.63;;;14.38;51.75
32109;BME280;18624;50.042;8.436;2023-04-10T10:14:03;100884.13;;;14.38;49.18
32109;BME280;18624;50.042;8.436;2023-04-10T10:16:36;100876.53;;;14.42;50.21
32109;BME280;18624;50.042;8.436;2023-04-10T10:19:12;100869.91;;;14.40;48.16
32109;BME280;18624;50.042;8.436;2023-04-10T10:21:43;100868.72;;;14.41;48.05
32109;BME280;18624;50.042;8.436;2023-04-10T10:24:10;100862.41;;;14.40;48.69
32109;BME280;18624;50.042;8.436;2023-04-10T10:26:39;100847.53;;;14.38;50.57
32109;BME280;18624;50.042;8.436;2023-04-10T10:29:07;100786.22;;;13.96;50.28
32109;BME280;18624;50.042;8.436;2023-04-10T10:31:36;100847.72;;;14.43;50.46
32109;BME280;18624;50.042;8.436;2023-04-10T10:34:04;100848.38;;;14.48;50.05
32109;BME280;18624;50.042;8.436;2023-04-10T10:36:33;100842.56;;;14.46;48.72
32109;BME280;18624;50.042;8.436;2023-04-10T10:42:08;100836.06;;;14.52;49.55
32109;BME280;18624;50.042;8.436;2023-04-10T10:47:29;100771.09;;;14.26;47.41
32109;BME280;18624;50.042;8.436;2023-04-10T11:00:15;100766.28;;;14.64;46.13
32109;BME280;18624;50.042;8.436;2023-04-10T11:02:41;100813.38;;;15.05;45.13
32109;BME280;18624;50.042;8.436;2023-04-10T11:05:08;100785.19;;;15.10;43.14
32109;BME280;18624;50.042;8.436;2023-04-10T11:11:04;100777.97;;;15.34;41.11
32109;BME280;18624;50.042;8.436;2023-04-10T11:13:33;100764.78;;;15.38;41.11
32109;BME280;18624;50.042;8.436;2023-04-10T11:16:03;100766.19;;;15.43;42.20
32109;BME280;18624;50.042;8.436;2023-04-10T11:21:22;100757.31;;;15.48;40.96
32109;BME280;18624;50.042;8.436;2023-04-10T11:31:55;100705.34;;;15.25;40.71
32109;BME280;18624;50.042;8.436;2023-04-10T11:34:22;100737.09;;;15.51;39.17
32109;BME280;18624;50.042;8.436;2023-04-10T11:36:49;100752.03;;;15.63;40.73
32109;BME280;18624;50.042;8.436;2023-04-10T11:39:16;100761.75;;;15.67;38.44
32109;BME280;18624;50.042;8.436;2023-04-10T11:41:45;100745.19;;;15.67;37.92
32109;BME280;18624;50.042;8.436;2023-04-10T11:44:14;100677.28;;;15.26;37.32
32109;BME280;18624;50.042;8.436;2023-04-10T11:46:43;100735.31;;;15.66;37.93
32109;BME280;18624;50.042;8.436;2023-04-10T11:49:20;100728.59;;;15.67;39.04
32109;BME280;18624;50.042;8.436;2023-04-10T11:51:48;100728.75;;;15.73;37.72
32109;BME280;18624;50.042;8.436;2023-04-10T11:54:18;100723.41;;;15.79;38.60
32109;BME280;18624;50.042;8.436;2023-04-10T11:56:59;100714.84;;;15.86;39.00
32109;BME280;18624;50.042;8.436;2023-04-10T11:59:27;100720.53;;;15.91;39.17
32109;BME280;18624;50.042;8.436;2023-04-10T12:02:11;100712.69;;;15.90;40.04
32109;BME280;18624;50.042;8.436;2023-04-10T12:04:43;100712.09;;;15.95;40.69
32109;BME280;18624;50.042;8.436;2023-04-10T12:07:10;100693.63;;;15.83;39.00
32109;BME280;18624;50.042;8.436;2023-04-10T12:09:37;100709.31;;;15.95;40.22
32109;BME280;18624;50.042;8.436;2023-04-10T12:12:05;100702.88;;;15.98;39.55
32109;BME280;18624;50.042;8.436;2023-04-10T12:14:34;100699.81;;;15.96;39.47
32109;BME280;18624;50.042;8.436;2023-04-10T12:17:02;100683.84;;;16.00;39.70
32109;BME280;18624;50.042;8.436;2023-04-10T12:19:29;100573.13;;;15.27;38.99
32109;BME280;18624;50.042;8.436;2023-04-10T12:21:57;100686.75;;;16.06;39.45
32109;BME280;18624;50.042;8.436;2023-04-10T12:24:40;100693.22;;;16.12;39.24
32109;BME280;18624;50.042;8.436;2023-04-10T12:27:19;100696.31;;;16.14;41.65
32109;BME280;18624;50.042;8.436;2023-04-10T12:29:46;100688.63;;;16.09;41.77
32109;BME280;18624;50.042;8.436;2023-04-10T12:32:13;100632.19;;;15.79;41.98
32109;BME280;18624;50.042;8.436;2023-04-10T12:34:40;100655.88;;;15.98;40.46
32109;BME280;18624;50.042;8.436;2023-04-10T12:37:07;100669.25;;;16.09;42.04
32109;BME280;18624;50.042;8.436;2023-04-10T12:39:35;100669.41;;;16.14;42.14
32109;BME280;18624;50.042;8.436;2023-04-10T12:47:17;100667.75;;;16.17;42.72
32109;BME280;18624;50.042;8.436;2023-04-10T12:50:09;100671.56;;;16.19;42.23
32109;BME280;18624;50.042;8.436;2023-04-10T12:52:39;100665.28;;;16.19;41.99
32109;BME280;18624;50.042;8.436;2023-04-10T12:55:19;100629.47;;;15.97;43.15
32109;BME280;18624;50.042;8.436;2023-04-10T12:57:47;100656.69;;;16.17;42.53
32109;BME280;18624;50.042;8.436;2023-04-10T13:00:18;100656.97;;;16.19;42.54
32109;BME280;18624;50.042;8.436;2023-04-10T13:02:46;100635.31;;;15.99;41.10
32109;BME280;18624;50.042;8.436;2023-04-10T13:05:14;100647.00;;;16.12;41.44
32109;BME280;18624;50.042;8.436;2023-04-10T13:07:40;100648.19;;;16.11;42.39
32109;BME280;18624;50.042;8.436;2023-04-10T13:10:07;100625.47;;;15.98;41.45
32109;BME280;18624;50.042;8.436;2023-04-10T13:12:34;100639.47;;;16.13;39.98
32109;BME280;18624;50.042;8.436;2023-04-10T13:15:01;100638.22;;;16.14;39.29
32109;BME280;18624;50.042;8.436;2023-04-10T13:17:28;100633.63;;;16.11;39.54
32109;BME280;18624;50.042;8.436;2023-04-10T13:19:54;100568.00;;;15.65;40.00
32109;BME280;18624;50.042;8.436;2023-04-10T13:22:21;100620.41;;;16.06;40.08
32109;BME280;18624;50.042;8.436;2023-04-10T13:24:47;100620.25;;;16.09;39.75
32109;BME280;18624;50.042;8.436;2023-04-10T13:27:14;100616.25;;;16.10;40.24
32109;BME280;18624;50.042;8.436;2023-04-10T13:29:41;100606.28;;;16.13;40.26
32109;BME280;18624;50.042;8.436;2023-04-10T13:32:08;100608.56;;;16.14;40.70
32109;BME280;18624;50.042;8.436;2023-04-10T13:34:35;100602.13;;;16.17;40.98
32109;BME280;18624;50.042;8.436;2023-04-10T13:37:01;100540.09;;;15.82;39.98
32109;BME280;18624;50.042;8.436;2023-04-10T13:39:29;100597.81;;;16.16;41.45
32109;BME280;18624;50.042;8.436;2023-04-10T13:41:57;100576.78;;;16.10;39.98
32109;BME280;18624;50.042;8.436;2023-04-10T13:44:24;100585.38;;;16.21;41.35
32109;BME280;18624;50.042;8.436;2023-04-10T13:46:50;100570.47;;;16.18;42.01
32109;BME280;18624;50.042;8.436;2023-04-10T13:49:17;100573.25;;;16.18;41.11
32109;BME280;18624;50.042;8.436;2023-04-10T13:51:45;100571.69;;;16.27;42.27
32109;BME280;18624;50.042;8.436;2023-04-10T13:54:12;100576.75;;;16.28;41.65
32109;BME280;18624;50.042;8.436;2023-04-10T13:56:38;100558.50;;;16.31;41.26
32109;BME280;18624;50.042;8.436;2023-04-10T13:59:06;100555.53;;;16.34;41.63
32109;BME280;18624;50.042;8.436;2023-04-10T14:01:32;100548.63;;;16.39;41.63